createdAt,value
2023-03-13T00:00:22.305Z,353
2023-03-13T00:01:22.765Z,356
2023-03-13T00:03:21.445Z,354
2023-03-13T00:05:21.682Z,347
2023-03-13T00:06:21.856Z,351
2023-03-13T00:07:21.045Z,347
2023-03-13T00:08:21.293Z,355
2023-03-13T00:09:21.550Z,365
2023-03-13T00:10:22.480Z,360
2023-03-13T00:12:22.106Z,350
2023-03-13T00:13:21.252Z,349
2023-03-13T00:14:21.475Z,347
2023-03-13T00:16:22.551Z,327
2023-03-13T00:17:22.124Z,338
2023-03-13T00:18:21.570Z,342
2023-03-13T00:19:21.419Z,354
2023-03-13T00:20:21.977Z,356
2023-03-13T00:21:21.270Z,350
2023-03-13T00:22:21.679Z,356
2023-03-13T00:25:22.399Z,361
2023-03-13T00:26:21.827Z,346
2023-03-13T00:27:21.396Z,344
2023-03-13T00:28:21.525Z,348
2023-03-13T00:29:21.978Z,363
2023-03-13T00:30:21.704Z,350
2023-03-13T00:31:21.515Z,349
2023-03-13T00:32:21.414Z,345
2023-03-13T00:33:21.503Z,342
2023-03-13T00:34:21.655Z,348
2023-03-13T00:35:22.112Z,347
2023-03-13T00:36:21.308Z,344
2023-03-13T00:37:21.465Z,359
2023-03-13T00:38:22.048Z,358
2023-03-13T00:39:21.453Z,348
2023-03-13T00:40:21.881Z,339
2023-03-13T00:41:21.370Z,348
2023-03-13T00:42:21.937Z,353
2023-03-13T00:43:21.517Z,358
2023-03-13T00:44:21.747Z,348
2023-03-13T00:45:21.719Z,346
2023-03-13T00:46:21.662Z,343
2023-03-13T00:47:21.512Z,340
2023-03-13T00:48:21.586Z,337
2023-03-13T00:49:21.908Z,342
2023-03-13T00:50:21.578Z,344
2023-03-13T00:52:21.234Z,366
2023-03-13T00:53:21.383Z,363
2023-03-13T00:54:21.578Z,355
2023-03-13T00:55:21.662Z,345
2023-03-13T00:56:22.108Z,349
2023-03-13T00:57:21.287Z,345
2023-03-13T00:58:21.635Z,349
2023-03-13T00:59:21.654Z,354
2023-03-13T01:00:22.368Z,349
2023-03-13T01:01:24.941Z,348
2023-03-13T01:02:22.001Z,343
2023-03-13T01:03:22.184Z,349
2023-03-13T01:04:21.995Z,347
2023-03-13T01:05:21.869Z,344
2023-03-13T01:06:21.428Z,351
2023-03-13T01:07:21.980Z,354
2023-03-13T01:08:21.430Z,351
2023-03-13T01:09:21.495Z,346
2023-03-13T01:10:21.760Z,349
2023-03-13T01:11:21.607Z,347
2023-03-13T01:12:21.937Z,356
2023-03-13T01:13:22.081Z,367
2023-03-13T01:14:21.350Z,362
2023-03-13T01:15:22.077Z,349
2023-03-13T01:16:21.842Z,351
2023-03-13T01:17:21.584Z,358
2023-03-13T01:18:21.685Z,356
2023-03-13T01:19:21.702Z,353
2023-03-13T01:20:21.830Z,346
2023-03-13T01:21:21.851Z,359
2023-03-13T01:22:21.948Z,364
2023-03-13T01:23:21.335Z,354
2023-03-13T01:24:21.386Z,358
2023-03-13T01:25:21.782Z,352
2023-03-13T01:26:21.706Z,340
2023-03-13T01:27:22.050Z,345
2023-03-13T01:28:21.458Z,357
2023-03-13T01:29:21.463Z,363
2023-03-13T01:30:22.266Z,348
2023-03-13T01:31:22.029Z,350
2023-03-13T01:32:21.749Z,346
2023-03-13T01:33:21.745Z,342
2023-03-13T01:34:22.018Z,343
2023-03-13T01:35:21.206Z,350
2023-03-13T01:36:21.795Z,361
2023-03-13T01:37:22.038Z,354
2023-03-13T01:38:21.161Z,353
2023-03-13T01:39:21.778Z,356
2023-03-13T01:40:21.349Z,357
2023-03-13T01:41:21.521Z,347
2023-03-13T01:42:26.485Z,356
2023-03-13T01:43:26.914Z,363
2023-03-13T01:44:26.770Z,357
2023-03-13T01:45:21.587Z,350
2023-03-13T01:46:26.726Z,347
2023-03-13T01:47:21.971Z,338
2023-03-13T01:48:21.130Z,335
2023-03-13T01:49:21.196Z,338
2023-03-13T01:51:21.678Z,348
2023-03-13T01:52:21.460Z,338
2023-03-13T01:53:21.654Z,342
2023-03-13T01:54:21.853Z,353
2023-03-13T01:55:21.778Z,359
2023-03-13T01:57:21.500Z,348
2023-03-13T01:58:21.840Z,351
2023-03-13T01:59:21.099Z,352
2023-03-13T02:00:22.521Z,333
2023-03-13T02:01:22.146Z,326
2023-03-13T02:02:21.603Z,334
2023-03-13T02:03:21.781Z,335
2023-03-13T02:04:21.451Z,340
2023-03-13T02:05:21.760Z,345
2023-03-13T02:06:21.667Z,340
2023-03-13T02:07:21.633Z,337
2023-03-13T02:08:21.612Z,341
2023-03-13T02:09:21.692Z,358
2023-03-13T02:10:21.829Z,345
2023-03-13T02:11:22.043Z,344
2023-03-13T02:12:21.358Z,354
2023-03-13T02:14:22.436Z,348
2023-03-13T02:15:22.202Z,330
2023-03-13T02:16:21.277Z,335
2023-03-13T02:17:21.854Z,354
2023-03-13T02:18:22.074Z,360
2023-03-13T02:20:21.706Z,359
2023-03-13T02:21:21.393Z,357
2023-03-13T02:22:21.739Z,352
2023-03-13T02:23:21.654Z,345
2023-03-13T02:24:21.262Z,350
2023-03-13T02:25:21.691Z,342
2023-03-13T02:26:22.229Z,341
2023-03-13T02:27:21.994Z,343
2023-03-13T02:28:21.185Z,340
2023-03-13T02:30:21.549Z,346
2023-03-13T02:31:21.801Z,342
2023-03-13T02:32:22.177Z,340
2023-03-13T02:33:21.184Z,335
2023-03-13T02:34:21.536Z,345
2023-03-13T02:35:22.593Z,358
2023-03-13T02:36:21.618Z,355
2023-03-13T02:37:21.838Z,347
2023-03-13T02:38:21.725Z,351
2023-03-13T02:39:22.052Z,343
2023-03-13T02:40:21.932Z,344
2023-03-13T02:41:21.545Z,347
2023-03-13T02:42:21.813Z,341
2023-03-13T02:43:21.660Z,336
2023-03-13T02:44:21.382Z,357
2023-03-13T02:45:21.707Z,358
2023-03-13T02:46:21.875Z,351
2023-03-13T02:47:21.409Z,358
2023-03-13T02:48:21.451Z,349
2023-03-13T02:49:21.599Z,345
2023-03-13T02:50:21.801Z,346
2023-03-13T02:51:21.713Z,362
2023-03-13T02:52:22.085Z,367
2023-03-13T02:53:21.548Z,358
2023-03-13T02:54:22.355Z,356
2023-03-13T02:55:21.797Z,350
2023-03-13T02:56:21.108Z,343
2023-03-13T02:57:21.723Z,346
2023-03-13T02:58:21.890Z,345
2023-03-13T02:59:21.313Z,346
2023-03-13T03:01:23.383Z,341
2023-03-13T03:02:21.537Z,349
2023-03-13T03:03:21.962Z,359
2023-03-13T03:05:22.171Z,361
2023-03-13T03:06:21.927Z,357
2023-03-13T03:07:21.370Z,348
2023-03-13T03:08:21.647Z,344
2023-03-13T03:09:22.072Z,342
2023-03-13T03:10:21.397Z,353
2023-03-13T03:11:21.705Z,360
2023-03-13T03:12:21.503Z,356
2023-03-13T03:13:21.573Z,353
2023-03-13T03:14:21.438Z,351
2023-03-13T03:15:22.324Z,349
2023-03-13T03:16:21.590Z,340
2023-03-13T03:17:22.050Z,343
2023-03-13T03:18:21.363Z,348
2023-03-13T03:19:21.889Z,338
2023-03-13T03:20:22.086Z,344
2023-03-13T03:21:21.284Z,351
2023-03-13T03:22:21.534Z,356
2023-03-13T03:23:21.410Z,358
2023-03-13T03:24:21.494Z,350
2023-03-13T03:25:22.112Z,341
2023-03-13T03:26:21.589Z,349
2023-03-13T03:27:22.092Z,347
2023-03-13T03:28:21.467Z,341
2023-03-13T03:29:21.871Z,348
2023-03-13T03:31:21.841Z,349
2023-03-13T03:32:21.660Z,354
2023-03-13T03:33:21.500Z,353
2023-03-13T03:34:22.317Z,364
2023-03-13T03:35:21.217Z,361
2023-03-13T03:36:21.411Z,353
2023-03-13T03:37:21.514Z,352
2023-03-13T03:38:21.343Z,344
2023-03-13T03:39:21.650Z,339
2023-03-13T03:40:22.286Z,352
2023-03-13T03:41:21.696Z,343
2023-03-13T03:42:21.665Z,337
2023-03-13T03:43:21.599Z,344
2023-03-13T03:44:21.269Z,349
2023-03-13T03:45:22.188Z,351
2023-03-13T03:46:21.820Z,355
2023-03-13T03:47:21.536Z,353
2023-03-13T03:48:21.496Z,349
2023-03-13T03:49:21.396Z,354
2023-03-13T03:50:21.550Z,356
2023-03-13T03:51:21.433Z,357
2023-03-13T03:52:21.712Z,347
2023-03-13T03:53:21.669Z,334
2023-03-13T03:54:22.198Z,347
2023-03-13T03:55:20.971Z,346
2023-03-13T03:56:21.152Z,351
2023-03-13T03:57:21.418Z,357
2023-03-13T03:58:21.817Z,342
2023-03-13T03:59:21.288Z,343
2023-03-13T04:01:21.710Z,327
2023-03-13T04:02:21.357Z,345
2023-03-13T04:04:21.944Z,348
2023-03-13T04:05:27.011Z,347
2023-03-13T04:06:21.635Z,338
2023-03-13T04:07:21.376Z,336
2023-03-13T04:08:21.631Z,344
2023-03-13T04:09:22.030Z,357
2023-03-13T04:11:21.472Z,359
2023-03-13T04:12:22.252Z,352
2023-03-13T04:13:21.883Z,346
2023-03-13T04:14:21.136Z,347
2023-03-13T04:15:22.533Z,343
2023-03-13T04:16:21.743Z,344
2023-03-13T04:18:21.527Z,370
2023-03-13T04:19:21.676Z,372
2023-03-13T04:20:21.449Z,364
2023-03-13T04:21:21.479Z,359
2023-03-13T04:22:21.703Z,361
2023-03-13T04:23:21.816Z,350
2023-03-13T04:24:21.655Z,357
2023-03-13T04:25:21.949Z,347
2023-03-13T04:26:21.253Z,355
2023-03-13T04:27:21.465Z,352
2023-03-13T04:29:22.257Z,349
2023-03-13T04:31:21.770Z,359
2023-03-13T04:32:21.772Z,351
2023-03-13T04:33:21.741Z,358
2023-03-13T04:34:22.175Z,351
2023-03-13T04:35:21.753Z,356
2023-03-13T04:36:22.201Z,354
2023-03-13T04:37:21.426Z,355
2023-03-13T04:38:21.388Z,354
2023-03-13T04:39:21.660Z,353
2023-03-13T04:40:21.945Z,341
2023-03-13T04:41:21.626Z,348
2023-03-13T04:42:21.384Z,361
2023-03-13T04:43:21.420Z,353
2023-03-13T04:44:21.375Z,346
2023-03-13T04:45:21.940Z,343
2023-03-13T04:46:21.808Z,334
2023-03-13T04:47:21.302Z,342
2023-03-13T04:48:21.318Z,346
2023-03-13T04:49:21.505Z,353
2023-03-13T04:50:22.485Z,355
2023-03-13T04:51:21.444Z,350
2023-03-13T04:52:21.215Z,347
2023-03-13T04:53:21.614Z,355
2023-03-13T04:56:32.506Z,337
2023-03-13T04:57:21.404Z,343
2023-03-13T04:59:21.919Z,350
2023-03-13T05:00:22.268Z,348
2023-03-13T05:01:22.011Z,344
2023-03-13T05:02:21.722Z,339
2023-03-13T05:03:21.795Z,343
2023-03-13T05:04:21.344Z,347
2023-03-13T05:05:22.099Z,348
2023-03-13T05:06:21.615Z,351
2023-03-13T05:07:21.829Z,341
2023-03-13T05:08:21.735Z,348
2023-03-13T05:10:22.365Z,349
2023-03-13T05:11:21.931Z,358
2023-03-13T05:12:21.637Z,356
2023-03-13T05:14:22.000Z,338
2023-03-13T05:15:22.068Z,339
2023-03-13T05:16:22.021Z,342
2023-03-13T05:17:22.208Z,339
2023-03-13T05:18:21.730Z,346
2023-03-13T05:19:21.607Z,349
2023-03-13T05:20:22.069Z,350
2023-03-13T05:21:21.385Z,354
2023-03-13T05:22:21.813Z,351
2023-03-13T05:23:21.922Z,360
2023-03-13T05:24:21.770Z,344
2023-03-13T05:26:21.860Z,356
2023-03-13T05:27:22.233Z,350
2023-03-13T05:28:21.718Z,336
2023-03-13T05:29:22.198Z,351
2023-03-13T05:30:22.063Z,355
2023-03-13T05:31:22.521Z,351
2023-03-13T05:32:22.298Z,345
2023-03-13T05:33:21.633Z,357
2023-03-13T05:34:22.111Z,349
2023-03-13T05:35:22.218Z,348
2023-03-13T05:36:22.041Z,339
2023-03-13T05:37:21.891Z,342
2023-03-13T05:38:21.717Z,340
2023-03-13T05:39:21.619Z,348
2023-03-13T05:40:22.148Z,343
2023-03-13T05:41:21.732Z,351
2023-03-13T05:42:21.312Z,357
2023-03-13T05:43:21.546Z,351
2023-03-13T05:44:21.872Z,355
2023-03-13T05:45:22.522Z,344
2023-03-13T05:46:21.964Z,336
2023-03-13T05:47:21.638Z,346
2023-03-13T05:48:21.984Z,342
2023-03-13T05:49:21.502Z,339
2023-03-13T05:50:22.142Z,347
2023-03-13T05:51:21.944Z,353
2023-03-13T05:53:21.340Z,356
2023-03-13T05:54:21.664Z,346
2023-03-13T05:55:22.063Z,345
2023-03-13T05:56:22.100Z,352
2023-03-13T05:57:21.975Z,348
2023-03-13T05:58:21.605Z,355
2023-03-13T05:59:22.194Z,352
2023-03-13T06:00:23.217Z,357
2023-03-13T06:01:22.220Z,348
2023-03-13T06:02:21.912Z,341
2023-03-13T06:03:21.814Z,351
2023-03-13T06:04:22.055Z,356
2023-03-13T06:05:22.224Z,358
2023-03-13T06:06:21.751Z,355
2023-03-13T06:07:22.197Z,354
2023-03-13T06:08:21.873Z,355
2023-03-13T06:09:21.918Z,352
2023-03-13T06:10:22.300Z,354
2023-03-13T06:11:22.393Z,352
2023-03-13T06:12:23.194Z,350
2023-03-13T06:13:21.852Z,355
2023-03-13T06:14:21.683Z,348
2023-03-13T06:15:22.750Z,347
2023-03-13T06:16:22.373Z,345
2023-03-13T06:17:22.345Z,344
2023-03-13T06:18:22.141Z,357
2023-03-13T06:19:21.999Z,362
2023-03-13T06:20:22.300Z,345
2023-03-13T06:21:22.083Z,348
2023-03-13T06:22:21.978Z,338
2023-03-13T06:23:22.123Z,340
2023-03-13T06:24:22.003Z,349
2023-03-13T06:25:21.739Z,344
2023-03-13T06:26:21.608Z,347
2023-03-13T06:27:22.503Z,346
2023-03-13T06:28:22.478Z,350
2023-03-13T06:29:22.288Z,354
2023-03-13T06:30:22.164Z,349
2023-03-13T06:31:22.034Z,344
2023-03-13T06:32:22.476Z,346
2023-03-13T06:33:22.045Z,350
2023-03-13T06:34:22.233Z,349
2023-03-13T06:35:22.362Z,345
2023-03-13T06:37:22.055Z,346
2023-03-13T06:38:21.824Z,345
2023-03-13T06:40:22.089Z,347
2023-03-13T06:41:21.749Z,359
2023-03-13T06:42:21.264Z,345
2023-03-13T06:43:21.957Z,350
2023-03-13T06:44:28.345Z,359
2023-03-13T06:45:22.838Z,353
2023-03-13T06:46:29.865Z,346
2023-03-13T06:47:21.717Z,347
2023-03-13T06:49:22.219Z,341
2023-03-13T06:50:22.500Z,338
2023-03-13T06:51:22.165Z,345
2023-03-13T06:52:26.497Z,350
2023-03-13T06:53:22.461Z,352
2023-03-13T06:54:22.335Z,346
2023-03-13T06:55:22.098Z,352
2023-03-13T06:56:22.255Z,354
2023-03-13T06:57:22.347Z,348
2023-03-13T06:58:32.125Z,349
2023-03-13T06:59:21.873Z,354
2023-03-13T07:00:36.874Z,350
2023-03-13T07:01:22.707Z,347
2023-03-13T07:02:23.014Z,350
2023-03-13T07:03:22.982Z,343
2023-03-13T07:04:23.177Z,345
2023-03-13T07:05:22.642Z,337
2023-03-13T07:07:31.202Z,339
2023-03-13T07:08:22.904Z,342
2023-03-13T07:10:24.060Z,344
2023-03-13T07:11:28.472Z,346
2023-03-13T07:12:22.313Z,351
2023-03-13T07:13:21.921Z,355
2023-03-13T07:15:22.947Z,342
2023-03-13T07:16:21.908Z,351
2023-03-13T07:17:22.131Z,357
2023-03-13T07:19:22.315Z,352
2023-03-13T07:20:22.534Z,344
2023-03-13T07:21:21.837Z,354
2023-03-13T07:22:22.142Z,357
2023-03-13T07:23:22.338Z,346
2023-03-13T07:24:22.750Z,342
2023-03-13T07:25:22.234Z,340
2023-03-13T07:26:22.582Z,348
2023-03-13T07:27:21.855Z,353
2023-03-13T07:28:22.069Z,354
2023-03-13T07:29:21.782Z,342
2023-03-13T07:30:22.410Z,341
2023-03-13T07:31:22.072Z,340
2023-03-13T07:32:22.432Z,341
2023-03-13T07:33:22.797Z,339
2023-03-13T07:34:22.098Z,340
2023-03-13T07:35:22.225Z,335
2023-03-13T07:36:22.449Z,345
2023-03-13T07:37:22.284Z,347
2023-03-13T07:39:22.175Z,346
2023-03-13T07:40:22.808Z,343
2023-03-13T07:41:22.319Z,340
2023-03-13T07:42:22.686Z,350
2023-03-13T07:43:22.101Z,348
2023-03-13T07:44:22.479Z,352
2023-03-13T07:45:22.731Z,338
2023-03-13T07:46:22.282Z,342
2023-03-13T07:47:21.928Z,341
2023-03-13T07:48:22.268Z,343
2023-03-13T07:49:22.536Z,337
2023-03-13T07:50:21.955Z,343
2023-03-13T07:51:33.438Z,342
2023-03-13T07:52:22.266Z,353
2023-03-13T07:53:23.613Z,349
2023-03-13T07:54:22.599Z,351
2023-03-13T07:55:22.290Z,347
2023-03-13T07:56:22.129Z,364
2023-03-13T07:57:22.449Z,359
2023-03-13T07:58:22.450Z,341
2023-03-13T07:59:22.091Z,338
2023-03-13T08:00:23.098Z,348
2023-03-13T08:01:24.443Z,341
2023-03-13T08:02:21.819Z,325
2023-03-13T08:03:22.704Z,336
2023-03-13T08:04:22.067Z,337
2023-03-13T08:05:22.082Z,345
2023-03-13T08:06:22.720Z,340
2023-03-13T08:07:22.142Z,336
2023-03-13T08:08:22.403Z,328
2023-03-13T08:09:22.326Z,339
2023-03-13T08:10:23.194Z,350
2023-03-13T08:11:22.023Z,345
2023-03-13T08:12:22.334Z,339
2023-03-13T08:13:22.779Z,338
2023-03-13T08:14:22.266Z,332
2023-03-13T08:15:23.052Z,326
2023-03-13T08:16:22.414Z,336
2023-03-13T08:17:22.017Z,340
2023-03-13T08:18:22.501Z,337
2023-03-13T08:19:22.414Z,340
2023-03-13T08:20:22.894Z,344
2023-03-13T08:21:23.112Z,339
2023-03-13T08:22:22.548Z,340
2023-03-13T08:23:22.378Z,343
2023-03-13T08:24:22.694Z,341
2023-03-13T08:26:22.384Z,351
2023-03-13T08:27:22.106Z,354
2023-03-13T08:28:22.886Z,350
2023-03-13T08:29:22.390Z,347
2023-03-13T08:30:22.196Z,339
2023-03-13T08:31:22.979Z,337
2023-03-13T08:32:22.467Z,334
2023-03-13T08:33:22.108Z,335
2023-03-13T08:34:22.319Z,332
2023-03-13T08:35:23.015Z,335
2023-03-13T08:36:23.203Z,344
2023-03-13T08:37:21.865Z,350
2023-03-13T08:38:21.932Z,345
2023-03-13T08:39:22.262Z,348
2023-03-13T08:40:22.000Z,356
2023-03-13T08:41:22.525Z,346
2023-03-13T08:43:24.150Z,349
2023-03-13T08:45:23.684Z,341
2023-03-13T08:46:21.553Z,335
2023-03-13T08:48:21.783Z,338
2023-03-13T08:49:21.754Z,344
2023-03-13T08:50:22.583Z,340
2023-03-13T08:52:21.699Z,342
2023-03-13T08:53:21.915Z,344
2023-03-13T08:54:22.281Z,337
2023-03-13T08:55:22.563Z,329
2023-03-13T08:56:22.020Z,343
2023-03-13T08:57:22.321Z,336
2023-03-13T08:58:21.835Z,329
2023-03-13T08:59:22.650Z,335
2023-03-13T09:00:23.040Z,343
2023-03-13T09:01:27.557Z,352
2023-03-13T09:02:22.285Z,351
2023-03-13T09:03:22.560Z,349
2023-03-13T09:04:21.999Z,339
2023-03-13T09:05:22.499Z,326
2023-03-13T09:06:22.399Z,317
2023-03-13T09:07:27.204Z,329
2023-03-13T09:08:22.395Z,339
2023-03-13T09:09:23.236Z,346
2023-03-13T09:10:22.051Z,348
2023-03-13T09:11:22.008Z,345
2023-03-13T09:12:30.690Z,346
2023-03-13T09:13:22.188Z,342
2023-03-13T09:14:22.468Z,332
2023-03-13T09:16:22.619Z,334
2023-03-13T09:17:22.376Z,331
2023-03-13T09:18:21.964Z,328
2023-03-13T09:19:22.439Z,341
2023-03-13T09:20:21.760Z,340
2023-03-13T09:21:22.316Z,331
2023-03-13T09:22:22.054Z,335
2023-03-13T09:23:22.226Z,333
2023-03-13T09:24:22.365Z,341
2023-03-13T09:25:22.630Z,343
2023-03-13T09:26:23.444Z,348
2023-03-13T09:27:35.826Z,337
2023-03-13T09:28:22.167Z,326
2023-03-13T09:29:22.226Z,327
2023-03-13T09:30:22.830Z,326
2023-03-13T09:31:21.897Z,336
2023-03-13T09:32:22.342Z,334
2023-03-13T09:33:22.081Z,329
2023-03-13T09:34:22.471Z,335
2023-03-13T09:35:22.458Z,334
2023-03-13T09:36:23.068Z,329
2023-03-13T09:37:22.223Z,341
2023-03-13T09:38:22.184Z,334
2023-03-13T09:39:21.709Z,341
2023-03-13T09:40:22.717Z,344
2023-03-13T09:41:22.014Z,337
2023-03-13T09:42:22.296Z,327
2023-03-13T09:43:22.766Z,329
2023-03-13T09:44:22.049Z,333
2023-03-13T09:45:22.725Z,332
2023-03-13T09:47:21.779Z,330
2023-03-13T09:48:21.940Z,340
2023-03-13T09:49:22.248Z,339
2023-03-13T09:50:22.810Z,337
2023-03-13T09:51:22.345Z,327
2023-03-13T09:52:22.067Z,336
2023-03-13T09:53:22.331Z,335
2023-03-13T09:54:21.868Z,328
2023-03-13T09:55:21.968Z,321
2023-03-13T09:56:22.257Z,326
2023-03-13T09:57:22.475Z,330
2023-03-13T09:58:22.019Z,328
2023-03-13T09:59:22.279Z,339
2023-03-13T10:00:23.146Z,338
2023-03-13T10:01:22.548Z,339
2023-03-13T10:02:22.379Z,333
2023-03-13T10:03:22.998Z,334
2023-03-13T10:04:22.707Z,333
2023-03-13T10:05:22.059Z,342
2023-03-13T10:06:22.352Z,335
2023-03-13T10:07:22.661Z,333
2023-03-13T10:08:22.251Z,338
2023-03-13T10:09:22.105Z,329
2023-03-13T10:11:21.979Z,345
2023-03-13T10:12:22.776Z,350
2023-03-13T10:13:22.252Z,338
2023-03-13T10:14:22.654Z,346
2023-03-13T10:15:22.327Z,348
2023-03-13T10:16:22.294Z,351
2023-03-13T10:17:22.093Z,336
2023-03-13T10:18:22.577Z,333
2023-03-13T10:19:22.622Z,335
2023-03-13T10:20:23.421Z,326
2023-03-13T10:21:23.069Z,327
2023-03-13T10:22:22.387Z,329
2023-03-13T10:23:22.820Z,333
2023-03-13T10:24:22.952Z,334
2023-03-13T10:25:22.547Z,336
2023-03-13T10:26:22.779Z,339
2023-03-13T10:27:22.710Z,334
2023-03-13T10:28:22.118Z,329
2023-03-13T10:30:22.434Z,326
2023-03-13T10:31:21.937Z,334
2023-03-13T10:32:23.100Z,337
2023-03-13T10:33:22.909Z,332
2023-03-13T10:34:22.902Z,326
2023-03-13T10:35:23.017Z,327
2023-03-13T10:36:23.297Z,326
2023-03-13T10:37:22.148Z,334
2023-03-13T10:38:25.299Z,347
2023-03-13T10:39:22.688Z,330
2023-03-13T10:40:22.209Z,337
2023-03-13T10:41:21.801Z,327
2023-03-13T10:42:22.418Z,324
2023-03-13T10:43:22.577Z,321
2023-03-13T10:44:21.250Z,327
2023-03-13T10:45:25.009Z,334
2023-03-13T10:46:22.264Z,335
2023-03-13T10:47:22.986Z,326
2023-03-13T10:48:21.986Z,334
2023-03-13T10:49:22.354Z,342
2023-03-13T10:50:22.058Z,336
2023-03-13T10:51:22.996Z,329
2023-03-13T10:52:22.076Z,331
2023-03-13T10:53:22.324Z,327
2023-03-13T10:54:22.168Z,331
2023-03-13T10:55:22.799Z,330
2023-03-13T10:56:22.654Z,327
2023-03-13T10:57:22.005Z,332
2023-03-13T10:58:22.038Z,323
2023-03-13T10:59:23.320Z,324
2023-03-13T11:00:23.854Z,329
2023-03-13T11:01:23.553Z,326
2023-03-13T11:02:23.422Z,332
2023-03-13T11:03:23.588Z,337
2023-03-13T11:04:23.406Z,338
2023-03-13T11:05:23.135Z,341
2023-03-13T11:06:22.510Z,338
2023-03-13T11:07:22.609Z,329
2023-03-13T11:08:22.571Z,330
2023-03-13T11:09:22.289Z,333
2023-03-13T11:10:22.723Z,338
2023-03-13T11:11:22.328Z,334
2023-03-13T11:12:21.630Z,339
2023-03-13T11:13:35.636Z,333
2023-03-13T11:15:22.180Z,332
2023-03-13T11:16:23.045Z,322
2023-03-13T11:17:22.919Z,312
2023-03-13T11:18:22.704Z,327
2023-03-13T11:19:22.472Z,336
2023-03-13T11:20:22.755Z,350
2023-03-13T11:21:23.126Z,339
2023-03-13T11:22:22.744Z,332
2023-03-13T11:23:22.385Z,330
2023-03-13T11:24:22.427Z,325
2023-03-13T11:25:22.357Z,327
2023-03-13T11:26:22.346Z,328
2023-03-13T11:27:22.009Z,336
2023-03-13T11:28:22.479Z,338
2023-03-13T11:29:22.012Z,343
2023-03-13T11:30:28.160Z,344
2023-03-13T11:31:21.775Z,335
2023-03-13T11:32:22.821Z,333
2023-03-13T11:34:21.987Z,342
2023-03-13T11:35:23.249Z,333
2023-03-13T11:37:22.268Z,330
2023-03-13T11:38:30.102Z,344
2023-03-13T11:39:21.962Z,334
2023-03-13T11:40:22.915Z,340
2023-03-13T11:41:22.735Z,345
2023-03-13T11:42:22.743Z,343
2023-03-13T11:43:25.671Z,335
2023-03-13T11:44:21.874Z,338
2023-03-13T11:45:23.516Z,339
2023-03-13T11:46:23.135Z,341
2023-03-13T11:47:22.307Z,347
2023-03-13T11:48:22.016Z,339
2023-03-13T11:49:22.651Z,322
2023-03-13T11:50:36.627Z,333
2023-03-13T11:51:22.343Z,331
2023-03-13T11:53:21.966Z,334
2023-03-13T11:54:22.486Z,348
2023-03-13T11:56:21.737Z,339
2023-03-13T11:57:22.615Z,337
2023-03-13T11:58:22.095Z,330
2023-03-13T11:59:21.990Z,334
2023-03-13T12:00:24.338Z,344
2023-03-13T12:01:22.653Z,332
2023-03-13T12:02:23.221Z,327
2023-03-13T12:03:22.535Z,321
2023-03-13T12:04:22.040Z,317
2023-03-13T12:05:22.641Z,332
2023-03-13T12:06:28.268Z,317
2023-03-13T12:07:22.696Z,321
2023-03-13T12:08:22.115Z,324
2023-03-13T12:09:22.265Z,320
2023-03-13T12:11:22.389Z,334
2023-03-13T12:12:22.010Z,342
2023-03-13T12:13:22.499Z,336
2023-03-13T12:15:22.948Z,348
2023-03-13T12:16:22.154Z,338
2023-03-13T12:17:22.773Z,334
2023-03-13T12:18:22.605Z,341
2023-03-13T12:19:22.217Z,351
2023-03-13T12:20:22.104Z,347
2023-03-13T12:21:22.145Z,333
2023-03-13T12:22:22.353Z,325
2023-03-13T12:23:22.218Z,326
2023-03-13T12:24:22.445Z,323
2023-03-13T12:25:22.414Z,318
2023-03-13T12:26:22.385Z,331
2023-03-13T12:27:21.589Z,332
2023-03-13T12:28:23.898Z,323
2023-03-13T12:29:22.052Z,330
2023-03-13T12:30:22.701Z,326
2023-03-13T12:31:22.352Z,320
2023-03-13T12:32:21.511Z,318
2023-03-13T12:33:24.065Z,316
2023-03-13T12:34:21.577Z,328
2023-03-13T12:35:22.240Z,325
2023-03-13T12:37:21.953Z,324
2023-03-13T12:38:22.320Z,322
2023-03-13T12:39:23.239Z,328
2023-03-13T12:40:22.553Z,325
2023-03-13T12:41:22.177Z,324
2023-03-13T12:42:22.285Z,342
2023-03-13T12:43:22.258Z,344
2023-03-13T12:44:21.777Z,343
2023-03-13T12:45:22.556Z,332
2023-03-13T12:46:22.172Z,338
2023-03-13T12:47:22.102Z,342
2023-03-13T12:48:22.745Z,343
2023-03-13T12:49:22.316Z,339
2023-03-13T12:50:22.060Z,340
2023-03-13T12:51:22.458Z,335
2023-03-13T12:52:22.433Z,330
2023-03-13T12:53:22.622Z,318
2023-03-13T12:54:22.208Z,323
2023-03-13T12:55:22.423Z,334
2023-03-13T12:56:22.074Z,337
2023-03-13T12:57:22.274Z,334
2023-03-13T12:58:22.541Z,326
2023-03-13T12:59:22.421Z,328
2023-03-13T13:00:23.763Z,327
2023-03-13T13:01:22.885Z,330
2023-03-13T13:02:22.873Z,332
2023-03-13T13:03:22.625Z,339
2023-03-13T13:04:22.752Z,338
2023-03-13T13:05:22.517Z,326
2023-03-13T13:07:22.997Z,329
2023-03-13T13:08:22.480Z,324
2023-03-13T13:09:22.422Z,329
2023-03-13T13:10:21.897Z,321
2023-03-13T13:11:24.264Z,320
2023-03-13T13:12:22.378Z,321
2023-03-13T13:15:22.718Z,324
2023-03-13T13:16:22.881Z,326
2023-03-13T13:17:22.835Z,325
2023-03-13T13:18:22.523Z,331
2023-03-13T13:19:22.043Z,328
2023-03-13T13:20:22.665Z,337
2023-03-13T13:21:22.816Z,338
2023-03-13T13:23:22.250Z,337
2023-03-13T13:24:22.444Z,335
2023-03-13T13:25:22.803Z,339
2023-03-13T13:26:22.895Z,330
2023-03-13T13:27:22.765Z,335
2023-03-13T13:28:22.397Z,330
2023-03-13T13:29:22.540Z,331
2023-03-13T13:30:22.778Z,333
2023-03-13T13:31:22.503Z,339
2023-03-13T13:32:22.514Z,332
2023-03-13T13:33:22.441Z,330
2023-03-13T13:34:22.362Z,325
2023-03-13T13:35:22.665Z,326
2023-03-13T13:36:22.595Z,321
2023-03-13T13:38:22.654Z,325
2023-03-13T13:39:22.231Z,328
2023-03-13T13:40:22.653Z,322
2023-03-13T13:41:23.340Z,315
2023-03-13T13:42:22.366Z,330
2023-03-13T13:43:21.910Z,327
2023-03-13T13:44:22.929Z,319
2023-03-13T13:45:23.229Z,307
2023-03-13T13:46:22.650Z,315
2023-03-13T13:47:21.836Z,326
2023-03-13T13:48:22.297Z,324
2023-03-13T13:49:22.572Z,344
2023-03-13T13:50:22.405Z,343
2023-03-13T13:51:22.317Z,322
2023-03-13T13:52:22.407Z,326
2023-03-13T13:53:22.556Z,328
2023-03-13T13:54:22.771Z,327
2023-03-13T13:55:28.034Z,336
2023-03-13T13:57:23.112Z,343
2023-03-13T13:58:23.284Z,332
2023-03-13T13:59:23.041Z,339
2023-03-13T14:00:23.782Z,334
2023-03-13T14:01:23.717Z,333
2023-03-13T14:02:22.523Z,334
2023-03-13T14:03:22.435Z,333
2023-03-13T14:04:22.534Z,332
2023-03-13T14:05:22.835Z,329
2023-03-13T14:06:22.597Z,330
2023-03-13T14:07:22.241Z,333
2023-03-13T14:08:22.441Z,328
2023-03-13T14:09:37.481Z,331
2023-03-13T14:10:22.218Z,336
2023-03-13T14:11:21.840Z,351
2023-03-13T14:12:22.453Z,345
2023-03-13T14:13:22.184Z,330
2023-03-13T14:14:22.443Z,332
2023-03-13T14:15:22.524Z,334
2023-03-13T14:16:24.336Z,332
2023-03-13T14:17:36.799Z,334
2023-03-13T14:18:22.511Z,336
2023-03-13T14:19:22.568Z,338
2023-03-13T14:20:22.700Z,339
2023-03-13T14:21:41.352Z,333
2023-03-13T14:22:22.479Z,328
2023-03-13T14:23:22.235Z,327
2023-03-13T14:24:22.469Z,329
2023-03-13T14:25:23.005Z,322
2023-03-13T14:26:22.588Z,321
2023-03-13T14:27:22.374Z,326
2023-03-13T14:28:22.755Z,328
2023-03-13T14:29:22.433Z,325
2023-03-13T14:30:23.036Z,328
2023-03-13T14:31:22.622Z,326
2023-03-13T14:32:23.028Z,327
2023-03-13T14:33:21.916Z,317
2023-03-13T14:34:22.249Z,321
2023-03-13T14:35:22.180Z,315
2023-03-13T14:36:22.395Z,332
2023-03-13T14:37:22.399Z,336
2023-03-13T14:38:22.896Z,338
2023-03-13T14:39:44.945Z,326
2023-03-13T14:40:22.639Z,318
2023-03-13T14:41:22.647Z,319
2023-03-13T14:42:22.285Z,326
2023-03-13T14:43:23.171Z,332
2023-03-13T14:44:22.309Z,338
2023-03-13T14:45:21.939Z,335